sensor_id;sensor_type;location;lat;lon;timestamp;P1;durP1;ratioP1;P2;durP2;ratioP2
65665;SDS011;52365;47.464;18.976;2022-07-29T00:00:33;4.53;;;2.50;;
65665;SDS011;52365;47.464;18.976;2022-07-29T00:01:13;4.80;;;2.70;;
65665;SDS011;52365;47.464;18.976;2022-07-29T00:01:50;4.28;;;2.60;;
65665;SDS011;52365;47.464;18.976;2022-07-29T00:02:28;4.93;;;2.50;;
65665;SDS011;52365;47.464;18.976;2022-07-29T00:03:04;4.70;;;2.80;;
65665;SDS011;52365;47.464;18.976;2022-07-29T00:03:40;4.40;;;2.50;;
65665;SDS011;52365;47.464;18.976;2022-07-29T00:04:16;2.95;;;2.53;;
65665;SDS011;52365;47.464;18.976;2022-07-29T00:04:52;4.85;;;2.87;;
65665;SDS011;52365;47.464;18.976;2022-07-29T00:05:28;3.83;;;2.60;;
65665;SDS011;52365;47.464;18.976;2022-07-29T00:06:04;5.32;;;2.67;;
65665;SDS011;52365;47.464;18.976;2022-07-29T00:06:40;4.97;;;2.55;;
65665;SDS011;52365;47.464;18.976;2022-07-29T00:07:16;5.62;;;2.75;;
65665;SDS011;52365;47.464;18.976;2022-07-29T00:07:53;3.10;;;2.50;;
65665;SDS011;52365;47.464;18.976;2022-07-29T00:08:29;4.00;;;2.40;;
65665;SDS011;52365;47.464;18.976;2022-07-29T00:09:05;3.78;;;2.50;;
65665;SDS011;52365;47.464;18.976;2022-07-29T00:09:41;4.75;;;2.58;;
65665;SDS011;52365;47.464;18.976;2022-07-29T00:10:17;6.68;;;2.70;;
65665;SDS011;52365;47.464;18.976;2022-07-29T00:10:53;3.60;;;2.80;;
65665;SDS011;52365;47.464;18.976;2022-07-29T00:11:30;5.35;;;2.80;;
65665;SDS011;52365;47.464;18.976;2022-07-29T00:12:06;4.10;;;2.80;;
65665;SDS011;52365;47.464;18.976;2022-07-29T00:12:42;5.07;;;2.67;;
65665;SDS011;52365;47.464;18.976;2022-07-29T00:13:18;3.67;;;2.70;;
65665;SDS011;52365;47.464;18.976;2022-07-29T00:13:54;3.40;;;2.78;;
65665;SDS011;52365;47.464;18.976;2022-07-29T00:14:30;3.20;;;2.45;;
65665;SDS011;52365;47.464;18.976;2022-07-29T00:15:06;4.12;;;2.62;;
65665;SDS011;52365;47.464;18.976;2022-07-29T00:15:43;4.25;;;2.70;;
65665;SDS011;52365;47.464;18.976;2022-07-29T00:16:19;4.12;;;2.70;;
65665;SDS011;52365;47.464;18.976;2022-07-29T00:16:55;6.80;;;2.87;;
65665;SDS011;52365;47.464;18.976;2022-07-29T00:17:31;4.80;;;2.72;;
65665;SDS011;52365;47.464;18.976;2022-07-29T00:18:09;4.00;;;2.78;;
65665;SDS011;52365;47.464;18.976;2022-07-29T00:18:45;4.57;;;2.70;;
65665;SDS011;52365;47.464;18.976;2022-07-29T00:19:21;4.10;;;2.70;;
65665;SDS011;52365;47.464;18.976;2022-07-29T00:19:57;4.05;;;2.62;;
65665;SDS011;52365;47.464;18.976;2022-07-29T00:20:33;2.95;;;2.60;;
65665;SDS011;52365;47.464;18.976;2022-07-29T00:21:09;3.42;;;2.40;;
65665;SDS011;52365;47.464;18.976;2022-07-29T00:21:45;4.43;;;2.62;;
65665;SDS011;52365;47.464;18.976;2022-07-29T00:22:22;3.75;;;2.60;;
65665;SDS011;52365;47.464;18.976;2022-07-29T00:22:58;3.83;;;2.60;;
65665;SDS011;52365;47.464;18.976;2022-07-29T00:23:34;4.03;;;2.80;;
65665;SDS011;52365;47.464;18.976;2022-07-29T00:24:10;3.55;;;2.80;;
65665;SDS011;52365;47.464;18.976;2022-07-29T00:24:49;5.32;;;2.80;;
65665;SDS011;52365;47.464;18.976;2022-07-29T00:25:25;3.47;;;2.60;;
65665;SDS011;52365;47.464;18.976;2022-07-29T00:26:01;4.72;;;2.80;;
65665;SDS011;52365;47.464;18.976;2022-07-29T00:26:38;4.45;;;2.67;;
65665;SDS011;52365;47.464;18.976;2022-07-29T00:27:14;4.05;;;2.70;;
65665;SDS011;52365;47.464;18.976;2022-07-29T00:27:50;4.03;;;2.60;;
65665;SDS011;52365;47.464;18.976;2022-07-29T00:28:26;4.07;;;2.60;;
65665;SDS011;52365;47.464;18.976;2022-07-29T00:29:03;4.43;;;2.50;;
65665;SDS011;52365;47.464;18.976;2022-07-29T00:29:39;4.95;;;2.67;;
65665;SDS011;52365;47.464;18.976;2022-07-29T00:30:16;5.97;;;2.78;;
65665;SDS011;52365;47.464;18.976;2022-07-29T00:30:52;4.90;;;2.90;;
65665;SDS011;52365;47.464;18.976;2022-07-29T00:31:28;3.72;;;2.67;;
65665;SDS011;52365;47.464;18.976;2022-07-29T00:32:05;3.90;;;2.70;;
65665;SDS011;52365;47.464;18.976;2022-07-29T00:32:41;5.43;;;3.10;;
65665;SDS011;52365;47.464;18.976;2022-07-29T00:33:17;3.40;;;2.50;;
65665;SDS011;52365;47.464;18.976;2022-07-29T00:33:54;4.50;;;2.60;;
65665;SDS011;52365;47.464;18.976;2022-07-29T00:34:30;4.18;;;2.62;;
65665;SDS011;52365;47.464;18.976;2022-07-29T00:35:25;4.68;;;2.90;;
65665;SDS011;52365;47.464;18.976;2022-07-29T00:36:19;4.47;;;2.83;;
65665;SDS011;52365;47.464;18.976;2022-07-29T00:36:56;3.80;;;2.70;;
65665;SDS011;52365;47.464;18.976;2022-07-29T00:37:32;4.55;;;2.70;;
65665;SDS011;52365;47.464;18.976;2022-07-29T00:38:09;4.45;;;2.60;;
65665;SDS011;52365;47.464;18.976;2022-07-29T00:38:47;6.62;;;2.72;;
65665;SDS011;52365;47.464;18.976;2022-07-29T00:39:24;4.03;;;2.90;;
65665;SDS011;52365;47.464;18.976;2022-07-29T00:40:00;3.17;;;2.65;;
65665;SDS011;52365;47.464;18.976;2022-07-29T00:40:37;3.78;;;2.60;;
65665;SDS011;52365;47.464;18.976;2022-07-29T00:41:14;4.95;;;2.70;;
65665;SDS011;52365;47.464;18.976;2022-07-29T00:41:50;3.80;;;2.83;;
65665;SDS011;52365;47.464;18.976;2022-07-29T00:42:27;3.87;;;2.60;;
65665;SDS011;52365;47.464;18.976;2022-07-29T00:43:03;3.72;;;2.60;;
65665;SDS011;52365;47.464;18.976;2022-07-29T00:43:39;4.25;;;2.85;;
65665;SDS011;52365;47.464;18.976;2022-07-29T00:44:15;6.28;;;2.78;;
65665;SDS011;52365;47.464;18.976;2022-07-29T00:44:51;3.50;;;2.85;;
65665;SDS011;52365;47.464;18.976;2022-07-29T00:45:27;4.50;;;2.70;;
65665;SDS011;52365;47.464;18.976;2022-07-29T00:46:03;6.00;;;2.92;;
65665;SDS011;52365;47.464;18.976;2022-07-29T00:46:39;5.18;;;2.70;;
65665;SDS011;52365;47.464;18.976;2022-07-29T00:47:16;5.22;;;2.78;;
65665;SDS011;52365;47.464;18.976;2022-07-29T00:47:52;4.00;;;2.62;;
65665;SDS011;52365;47.464;18.976;2022-07-29T00:48:28;3.87;;;2.80;;
65665;SDS011;52365;47.464;18.976;2022-07-29T00:49:04;4.30;;;2.78;;
65665;SDS011;52365;47.464;18.976;2022-07-29T00:49:40;4.75;;;2.70;;
65665;SDS011;52365;47.464;18.976;2022-07-29T00:50:17;4.30;;;2.53;;
65665;SDS011;52365;47.464;18.976;2022-07-29T00:50:53;3.55;;;2.55;;
65665;SDS011;52365;47.464;18.976;2022-07-29T00:51:31;5.47;;;2.67;;
65665;SDS011;52365;47.464;18.976;2022-07-29T00:52:08;4.15;;;2.53;;
65665;SDS011;52365;47.464;18.976;2022-07-29T00:52:46;4.30;;;2.83;;
65665;SDS011;52365;47.464;18.976;2022-07-29T00:53:22;5.97;;;2.75;;
65665;SDS011;52365;47.464;18.976;2022-07-29T00:53:59;3.87;;;2.40;;
65665;SDS011;52365;47.464;18.976;2022-07-29T00:54:35;4.32;;;2.75;;
65665;SDS011;52365;47.464;18.976;2022-07-29T00:55:14;4.05;;;2.60;;
65665;SDS011;52365;47.464;18.976;2022-07-29T00:55:52;3.92;;;2.37;;
65665;SDS011;52365;47.464;18.976;2022-07-29T00:56:30;4.70;;;2.55;;
65665;SDS011;52365;47.464;18.976;2022-07-29T00:57:07;5.72;;;2.53;;
65665;SDS011;52365;47.464;18.976;2022-07-29T00:57:43;3.85;;;2.62;;
65665;SDS011;52365;47.464;18.976;2022-07-29T00:58:21;4.68;;;2.70;;
65665;SDS011;52365;47.464;18.976;2022-07-29T00:58:58;5.60;;;2.78;;
65665;SDS011;52365;47.464;18.976;2022-07-29T00:59:35;5.28;;;2.58;;
65665;SDS011;52365;47.464;18.976;2022-07-29T01:00:12;4.30;;;2.80;;
65665;SDS011;52365;47.464;18.976;2022-07-29T01:00:55;4.28;;;2.60;;
65665;SDS011;52365;47.464;18.976;2022-07-29T01:01:31;4.05;;;2.50;;
65665;SDS011;52365;47.464;18.976;2022-07-29T01:02:07;3.55;;;2.67;;
65665;SDS011;52365;47.464;18.976;2022-07-29T01:02:44;3.55;;;2.75;;
65665;SDS011;52365;47.464;18.976;2022-07-29T01:03:23;4.25;;;2.60;;
65665;SDS011;52365;47.464;18.976;2022-07-29T01:03:59;4.25;;;2.70;;
65665;SDS011;52365;47.464;18.976;2022-07-29T01:04:35;2.90;;;2.50;;
65665;SDS011;52365;47.464;18.976;2022-07-29T01:05:11;4.50;;;2.62;;
65665;SDS011;52365;47.464;18.976;2022-07-29T01:05:48;3.87;;;2.55;;
65665;SDS011;52365;47.464;18.976;2022-07-29T01:06:24;3.22;;;2.65;;
65665;SDS011;52365;47.464;18.976;2022-07-29T01:07:01;4.45;;;2.80;;
65665;SDS011;52365;47.464;18.976;2022-07-29T01:07:37;5.35;;;2.90;;
65665;SDS011;52365;47.464;18.976;2022-07-29T01:08:15;4.50;;;3.00;;
65665;SDS011;52365;47.464;18.976;2022-07-29T01:08:52;3.90;;;2.60;;
65665;SDS011;52365;47.464;18.976;2022-07-29T01:09:29;5.25;;;2.70;;
65665;SDS011;52365;47.464;18.976;2022-07-29T01:10:08;4.22;;;2.78;;
65665;SDS011;52365;47.464;18.976;2022-07-29T01:10:45;3.87;;;2.60;;
65665;SDS011;52365;47.464;18.976;2022-07-29T01:11:22;4.53;;;2.62;;
65665;SDS011;52365;47.464;18.976;2022-07-29T01:11:59;4.03;;;2.60;;
65665;SDS011;52365;47.464;18.976;2022-07-29T01:12:36;3.40;;;2.70;;
65665;SDS011;52365;47.464;18.976;2022-07-29T01:13:14;4.20;;;2.75;;
65665;SDS011;52365;47.464;18.976;2022-07-29T01:13:51;4.20;;;2.65;;
65665;SDS011;52365;47.464;18.976;2022-07-29T01:14:28;5.28;;;2.80;;
65665;SDS011;52365;47.464;18.976;2022-07-29T01:15:06;4.10;;;2.90;;
65665;SDS011;52365;47.464;18.976;2022-07-29T01:15:44;4.65;;;2.87;;
65665;SDS011;52365;47.464;18.976;2022-07-29T01:16:26;5.37;;;2.90;;
65665;SDS011;52365;47.464;18.976;2022-07-29T01:17:12;4.15;;;2.55;;
65665;SDS011;52365;47.464;18.976;2022-07-29T01:18:47;7.65;;;3.85;;
65665;SDS011;52365;47.464;18.976;2022-07-29T01:20:59;5.47;;;3.28;;
65665;SDS011;52365;47.464;18.976;2022-07-29T01:21:53;3.58;;;2.87;;
65665;SDS011;52365;47.464;18.976;2022-07-29T01:23:21;4.22;;;2.80;;
65665;SDS011;52365;47.464;18.976;2022-07-29T01:24:39;3.60;;;2.58;;
65665;SDS011;52365;47.464;18.976;2022-07-29T01:26:59;4.37;;;2.60;;
65665;SDS011;52365;47.464;18.976;2022-07-29T01:27:54;5.30;;;2.80;;
65665;SDS011;52365;47.464;18.976;2022-07-29T01:30:30;5.37;;;2.95;;
65665;SDS011;52365;47.464;18.976;2022-07-29T01:31:10;5.45;;;2.95;;
65665;SDS011;52365;47.464;18.976;2022-07-29T01:32:35;4.40;;;2.90;;
65665;SDS011;52365;47.464;18.976;2022-07-29T01:32:54;4.10;;;2.80;;
65665;SDS011;52365;47.464;18.976;2022-07-29T01:33:36;3.35;;;2.67;;
65665;SDS011;52365;47.464;18.976;2022-07-29T01:34:40;4.62;;;3.15;;
65665;SDS011;52365;47.464;18.976;2022-07-29T01:35:23;3.95;;;3.10;;
65665;SDS011;52365;47.464;18.976;2022-07-29T01:36:04;3.83;;;2.92;;
65665;SDS011;52365;47.464;18.976;2022-07-29T01:36:47;4.10;;;2.92;;
65665;SDS011;52365;47.464;18.976;2022-07-29T01:38:27;6.55;;;3.10;;
65665;SDS011;52365;47.464;18.976;2022-07-29T01:39:11;5.43;;;2.90;;
65665;SDS011;52365;47.464;18.976;2022-07-29T01:39:54;3.97;;;2.90;;
65665;SDS011;52365;47.464;18.976;2022-07-29T01:40:36;4.57;;;3.03;;
65665;SDS011;52365;47.464;18.976;2022-07-29T01:41:56;5.47;;;3.10;;
65665;SDS011;52365;47.464;18.976;2022-07-29T01:42:43;3.92;;;3.00;;
65665;SDS011;52365;47.464;18.976;2022-07-29T01:43:27;7.37;;;3.15;;
65665;SDS011;52365;47.464;18.976;2022-07-29T01:44:13;3.72;;;2.90;;
65665;SDS011;52365;47.464;18.976;2022-07-29T01:44:59;4.07;;;3.00;;
65665;SDS011;52365;47.464;18.976;2022-07-29T01:45:45;6.18;;;3.03;;
65665;SDS011;52365;47.464;18.976;2022-07-29T01:46:33;6.00;;;3.10;;
65665;SDS011;52365;47.464;18.976;2022-07-29T01:47:12;3.17;;;2.80;;
65665;SDS011;52365;47.464;18.976;2022-07-29T01:48:48;3.90;;;3.15;;
65665;SDS011;52365;47.464;18.976;2022-07-29T01:49:34;5.87;;;3.12;;
65665;SDS011;52365;47.464;18.976;2022-07-29T01:50:16;4.72;;;3.15;;
65665;SDS011;52365;47.464;18.976;2022-07-29T01:50:53;3.90;;;3.03;;
65665;SDS011;52365;47.464;18.976;2022-07-29T01:51:46;5.37;;;3.45;;
65665;SDS011;52365;47.464;18.976;2022-07-29T01:52:38;4.12;;;3.28;;
65665;SDS011;52365;47.464;18.976;2022-07-29T01:53:37;5.75;;;3.45;;
65665;SDS011;52365;47.464;18.976;2022-07-29T01:54:20;4.30;;;3.47;;
65665;SDS011;52365;47.464;18.976;2022-07-29T01:55:03;5.57;;;3.20;;
65665;SDS011;52365;47.464;18.976;2022-07-29T01:55:44;4.45;;;3.15;;
65665;SDS011;52365;47.464;18.976;2022-07-29T01:56:22;4.30;;;3.10;;
65665;SDS011;52365;47.464;18.976;2022-07-29T01:57:00;5.60;;;3.33;;
65665;SDS011;52365;47.464;18.976;2022-07-29T01:57:39;4.10;;;3.10;;
65665;SDS011;52365;47.464;18.976;2022-07-29T01:58:19;4.22;;;3.22;;
65665;SDS011;52365;47.464;18.976;2022-07-29T01:58:56;3.92;;;3.10;;
65665;SDS011;52365;47.464;18.976;2022-07-29T01:59:33;3.20;;;2.80;;
65665;SDS011;52365;47.464;18.976;2022-07-29T02:00:11;4.28;;;3.53;;
65665;SDS011;52365;47.464;18.976;2022-07-29T02:00:48;4.50;;;3.20;;
65665;SDS011;52365;47.464;18.976;2022-07-29T02:01:25;4.50;;;3.22;;
65665;SDS011;52365;47.464;18.976;2022-07-29T02:02:03;4.00;;;3.10;;
65665;SDS011;52365;47.464;18.976;2022-07-29T02:02:42;5.05;;;3.40;;
65665;SDS011;52365;47.464;18.976;2022-07-29T02:03:19;5.72;;;3.50;;
65665;SDS011;52365;47.464;18.976;2022-07-29T02:03:57;4.85;;;3.10;;
65665;SDS011;52365;47.464;18.976;2022-07-29T02:04:37;4.68;;;3.35;;
65665;SDS011;52365;47.464;18.976;2022-07-29T02:05:17;4.53;;;3.28;;
65665;SDS011;52365;47.464;18.976;2022-07-29T02:05:55;4.20;;;3.30;;
65665;SDS011;52365;47.464;18.976;2022-07-29T02:06:34;4.05;;;3.17;;
65665;SDS011;52365;47.464;18.976;2022-07-29T02:07:15;5.87;;;3.30;;
65665;SDS011;52365;47.464;18.976;2022-07-29T02:07:55;5.07;;;3.08;;
65665;SDS011;52365;47.464;18.976;2022-07-29T02:08:33;4.28;;;3.35;;
65665;SDS011;52365;47.464;18.976;2022-07-29T02:09:12;5.35;;;3.30;;
65665;SDS011;52365;47.464;18.976;2022-07-29T02:09:51;4.70;;;3.35;;
65665;SDS011;52365;47.464;18.976;2022-07-29T02:10:29;6.82;;;3.40;;
65665;SDS011;52365;47.464;18.976;2022-07-29T02:11:08;4.25;;;3.30;;
65665;SDS011;52365;47.464;18.976;2022-07-29T02:11:47;4.05;;;3.03;;
65665;SDS011;52365;47.464;18.976;2022-07-29T02:12:26;4.30;;;3.30;;
65665;SDS011;52365;47.464;18.976;2022-07-29T02:13:07;3.97;;;3.30;;
65665;SDS011;52365;47.464;18.976;2022-07-29T02:13:46;4.68;;;3.47;;
65665;SDS011;52365;47.464;18.976;2022-07-29T02:14:24;5.57;;;3.40;;
65665;SDS011;52365;47.464;18.976;2022-07-29T02:15:03;3.75;;;3.10;;
65665;SDS011;52365;47.464;18.976;2022-07-29T02:15:41;5.10;;;3.20;;
65665;SDS011;52365;47.464;18.976;2022-07-29T02:16:20;5.53;;;3.62;;
65665;SDS011;52365;47.464;18.976;2022-07-29T02:16:58;5.30;;;3.33;;
65665;SDS011;52365;47.464;18.976;2022-07-29T02:17:40;3.97;;;3.10;;
65665;SDS011;52365;47.464;18.976;2022-07-29T02:18:22;5.55;;;3.30;;
65665;SDS011;52365;47.464;18.976;2022-07-29T02:19:00;4.72;;;3.62;;
65665;SDS011;52365;47.464;18.976;2022-07-29T02:19:38;4.75;;;3.50;;
65665;SDS011;52365;47.464;18.976;2022-07-29T02:20:17;6.43;;;3.28;;
65665;SDS011;52365;47.464;18.976;2022-07-29T02:20:54;5.03;;;3.30;;
65665;SDS011;52365;47.464;18.976;2022-07-29T02:21:32;3.80;;;3.40;;
65665;SDS011;52365;47.464;18.976;2022-07-29T02:22:10;6.12;;;3.40;;
65665;SDS011;52365;47.464;18.976;2022-07-29T02:22:48;4.72;;;3.40;;
65665;SDS011;52365;47.464;18.976;2022-07-29T02:23:26;5.53;;;3.45;;
65665;SDS011;52365;47.464;18.976;2022-07-29T02:24:03;4.85;;;3.20;;
65665;SDS011;52365;47.464;18.976;2022-07-29T02:24:40;4.57;;;3.20;;
65665;SDS011;52365;47.464;18.976;2022-07-29T02:25:17;4.43;;;3.30;;
65665;SDS011;52365;47.464;18.976;2022-07-29T02:25:57;3.97;;;3.45;;
65665;SDS011;52365;47.464;18.976;2022-07-29T02:26:34;4.43;;;3.42;;
65665;SDS011;52365;47.464;18.976;2022-07-29T02:27:11;3.60;;;3.30;;
65665;SDS011;52365;47.464;18.976;2022-07-29T02:27:48;8.60;;;3.58;;
65665;SDS011;52365;47.464;18.976;2022-07-29T02:28:27;4.62;;;3.60;;
65665;SDS011;52365;47.464;18.976;2022-07-29T02:29:05;5.40;;;3.50;;
65665;SDS011;52365;47.464;18.976;2022-07-29T02:29:45;5.72;;;3.40;;
65665;SDS011;52365;47.464;18.976;2022-07-29T02:30:23;5.18;;;3.30;;
65665;SDS011;52365;47.464;18.976;2022-07-29T02:31:01;4.25;;;3.53;;
65665;SDS011;52365;47.464;18.976;2022-07-29T02:31:39;4.72;;;3.50;;
65665;SDS011;52365;47.464;18.976;2022-07-29T02:32:18;3.92;;;3.53;;
65665;SDS011;52365;47.464;18.976;2022-07-29T02:32:59;4.43;;;3.47;;
65665;SDS011;52365;47.464;18.976;2022-07-29T02:33:37;4.57;;;3.55;;
65665;SDS011;52365;47.464;18.976;2022-07-29T02:34:16;4.97;;;3.50;;
65665;SDS011;52365;47.464;18.976;2022-07-29T02:34:54;5.10;;;3.33;;
65665;SDS011;52365;47.464;18.976;2022-07-29T02:35:32;4.60;;;3.60;;
65665;SDS011;52365;47.464;18.976;2022-07-29T02:36:08;5.82;;;3.30;;
65665;SDS011;52365;47.464;18.976;2022-07-29T02:36:45;7.03;;;3.70;;
65665;SDS011;52365;47.464;18.976;2022-07-29T02:37:21;4.85;;;3.55;;
65665;SDS011;52365;47.464;18.976;2022-07-29T02:37:58;4.00;;;3.15;;
65665;SDS011;52365;47.464;18.976;2022-07-29T02:38:53;4.62;;;3.17;;
65665;SDS011;52365;47.464;18.976;2022-07-29T02:39:33;4.40;;;3.05;;
65665;SDS011;52365;47.464;18.976;2022-07-29T02:40:10;4.22;;;3.20;;
65665;SDS011;52365;47.464;18.976;2022-07-29T02:40:48;5.30;;;3.53;;
65665;SDS011;52365;47.464;18.976;2022-07-29T02:41:28;4.35;;;3.37;;
65665;SDS011;52365;47.464;18.976;2022-07-29T02:42:08;4.00;;;3.30;;
65665;SDS011;52365;47.464;18.976;2022-07-29T02:42:48;3.90;;;3.50;;
65665;SDS011;52365;47.464;18.976;2022-07-29T02:43:24;5.90;;;3.67;;
65665;SDS011;52365;47.464;18.976;2022-07-29T02:44:02;4.57;;;3.30;;
65665;SDS011;52365;47.464;18.976;2022-07-29T02:44:44;4.62;;;3.45;;
65665;SDS011;52365;47.464;18.976;2022-07-29T02:45:20;4.78;;;3.20;;
65665;SDS011;52365;47.464;18.976;2022-07-29T02:45:57;4.03;;;3.20;;
65665;SDS011;52365;47.464;18.976;2022-07-29T02:46:36;4.57;;;3.30;;
65665;SDS011;52365;47.464;18.976;2022-07-29T02:48:54;6.55;;;3.80;;
65665;SDS011;52365;47.464;18.976;2022-07-29T02:49:35;5.20;;;3.50;;
65665;SDS011;52365;47.464;18.976;2022-07-29T02:51:01;4.97;;;3.40;;
65665;SDS011;52365;47.464;18.976;2022-07-29T02:51:54;6.20;;;3.60;;
65665;SDS011;52365;47.464;18.976;2022-07-29T02:52:37;4.55;;;3.58;;
65665;SDS011;52365;47.464;18.976;2022-07-29T02:53:19;4.00;;;3.20;;
65665;SDS011;52365;47.464;18.976;2022-07-29T02:53:59;4.95;;;3.35;;
65665;SDS011;52365;47.464;18.976;2022-07-29T02:54:42;6.07;;;3.45;;
65665;SDS011;52365;47.464;18.976;2022-07-29T02:55:29;3.92;;;3.53;;
65665;SDS011;52365;47.464;18.976;2022-07-29T02:56:11;4.22;;;3.40;;
65665;SDS011;52365;47.464;18.976;2022-07-29T02:56:50;4.62;;;3.20;;
65665;SDS011;52365;47.464;18.976;2022-07-29T02:58:24;5.60;;;3.45;;
65665;SDS011;52365;47.464;18.976;2022-07-29T02:59:06;4.35;;;3.20;;
65665;SDS011;52365;47.464;18.976;2022-07-29T02:59:46;5.18;;;3.40;;
65665;SDS011;52365;47.464;18.976;2022-07-29T03:00:29;5.18;;;3.53;;
65665;SDS011;52365;47.464;18.976;2022-07-29T03:01:08;4.15;;;3.40;;
65665;SDS011;52365;47.464;18.976;2022-07-29T03:01:49;4.37;;;3.42;;
65665;SDS011;52365;47.464;18.976;2022-07-29T03:02:27;4.60;;;3.40;;
65665;SDS011;52365;47.464;18.976;2022-07-29T03:03:08;3.78;;;3.40;;
65665;SDS011;52365;47.464;18.976;2022-07-29T03:03:52;4.25;;;3.55;;
65665;SDS011;52365;47.464;18.976;2022-07-29T03:04:29;3.87;;;3.05;;
65665;SDS011;52365;47.464;18.976;2022-07-29T03:05:08;4.15;;;3.30;;
65665;SDS011;52365;47.464;18.976;2022-07-29T03:05:48;6.35;;;3.50;;
65665;SDS011;52365;47.464;18.976;2022-07-29T03:06:24;5.43;;;3.40;;
65665;SDS011;52365;47.464;18.976;2022-07-29T03:07:02;6.12;;;3.53;;
65665;SDS011;52365;47.464;18.976;2022-07-29T03:07:40;6.22;;;3.62;;
65665;SDS011;52365;47.464;18.976;2022-07-29T03:08:21;4.30;;;3.30;;
65665;SDS011;52365;47.464;18.976;2022-07-29T03:08:58;5.57;;;3.30;;
65665;SDS011;52365;47.464;18.976;2022-07-29T03:09:35;4.97;;;3.30;;
65665;SDS011;52365;47.464;18.976;2022-07-29T03:10:12;5.68;;;3.40;;
65665;SDS011;52365;47.464;18.976;2022-07-29T03:10:49;5.05;;;3.12;;
65665;SDS011;52365;47.464;18.976;2022-07-29T03:11:26;4.72;;;3.25;;
65665;SDS011;52365;47.464;18.976;2022-07-29T03:12:03;4.35;;;3.50;;
65665;SDS011;52365;47.464;18.976;2022-07-29T03:12:40;5.95;;;3.25;;
65665;SDS011;52365;47.464;18.976;2022-07-29T03:13:17;6.05;;;3.30;;
65665;SDS011;52365;47.464;18.976;2022-07-29T03:13:54;5.35;;;3.50;;
65665;SDS011;52365;47.464;18.976;2022-07-29T03:14:31;6.35;;;3.30;;
65665;SDS011;52365;47.464;18.976;2022-07-29T03:15:08;4.30;;;3.28;;
65665;SDS011;52365;47.464;18.976;2022-07-29T03:15:45;6.25;;;3.20;;
65665;SDS011;52365;47.464;18.976;2022-07-29T03:16:22;4.43;;;3.30;;
65665;SDS011;52365;47.464;18.976;2022-07-29T03:16:59;5.50;;;3.20;;
65665;SDS011;52365;47.464;18.976;2022-07-29T03:17:36;4.82;;;3.28;;
65665;SDS011;52365;47.464;18.976;2022-07-29T03:18:13;4.28;;;2.97;;
65665;SDS011;52365;47.464;18.976;2022-07-29T03:18:50;3.62;;;3.20;;
65665;SDS011;52365;47.464;18.976;2022-07-29T03:19:27;4.75;;;3.40;;
65665;SDS011;52365;47.464;18.976;2022-07-29T03:20:04;5.43;;;3.53;;
65665;SDS011;52365;47.464;18.976;2022-07-29T03:20:42;4.10;;;3.37;;
65665;SDS011;52365;47.464;18.976;2022-07-29T03:21:18;4.90;;;3.40;;
65665;SDS011;52365;47.464;18.976;2022-07-29T03:21:57;6.15;;;3.62;;
65665;SDS011;52365;47.464;18.976;2022-07-29T03:22:38;4.25;;;3.50;;
65665;SDS011;52365;47.464;18.976;2022-07-29T03:23:19;4.82;;;3.40;;
65665;SDS011;52365;47.464;18.976;2022-07-29T03:23:58;6.40;;;3.35;;
65665;SDS011;52365;47.464;18.976;2022-07-29T03:24:34;4.28;;;3.15;;
65665;SDS011;52365;47.464;18.976;2022-07-29T03:25:12;7.43;;;3.70;;
65665;SDS011;52365;47.464;18.976;2022-07-29T03:25:49;6.07;;;3.50;;
65665;SDS011;52365;47.464;18.976;2022-07-29T03:26:26;4.20;;;3.17;;
65665;SDS011;52365;47.464;18.976;2022-07-29T03:27:02;6.60;;;3.55;;
65665;SDS011;52365;47.464;18.976;2022-07-29T03:27:39;4.82;;;3.60;;
65665;SDS011;52365;47.464;18.976;2022-07-29T03:28:15;4.80;;;3.47;;
65665;SDS011;52365;47.464;18.976;2022-07-29T03:28:52;4.30;;;3.40;;
65665;SDS011;52365;47.464;18.976;2022-07-29T03:29:28;5.28;;;3.45;;
65665;SDS011;52365;47.464;18.976;2022-07-29T03:30:04;4.37;;;3.40;;
65665;SDS011;52365;47.464;18.976;2022-07-29T03:30:41;5.72;;;3.33;;
65665;SDS011;52365;47.464;18.976;2022-07-29T03:31:17;4.95;;;3.30;;
65665;SDS011;52365;47.464;18.976;2022-07-29T03:31:53;4.97;;;3.50;;
65665;SDS011;52365;47.464;18.976;2022-07-29T03:32:30;4.28;;;3.40;;
65665;SDS011;52365;47.464;18.976;2022-07-29T03:33:06;4.20;;;3.30;;
65665;SDS011;52365;47.464;18.976;2022-07-29T03:33:42;5.65;;;3.42;;
65665;SDS011;52365;47.464;18.976;2022-07-29T03:34:18;5.15;;;3.30;;
65665;SDS011;52365;47.464;18.976;2022-07-29T03:34:54;4.72;;;3.42;;
65665;SDS011;52365;47.464;18.976;2022-07-29T03:35:30;4.20;;;3.40;;
65665;SDS011;52365;47.464;18.976;2022-07-29T03:36:07;5.05;;;3.30;;
65665;SDS011;52365;47.464;18.976;2022-07-29T03:36:43;3.85;;;3.37;;
65665;SDS011;52365;47.464;18.976;2022-07-29T03:37:19;4.57;;;3.30;;
65665;SDS011;52365;47.464;18.976;2022-07-29T03:37:55;4.25;;;3.40;;
65665;SDS011;52365;47.464;18.976;2022-07-29T03:38:32;3.95;;;3.15;;
65665;SDS011;52365;47.464;18.976;2022-07-29T03:39:11;4.68;;;3.03;;
65665;SDS011;52365;47.464;18.976;2022-07-29T03:39:52;4.35;;;3.20;;
65665;SDS011;52365;47.464;18.976;2022-07-29T03:40:32;3.75;;;3.20;;
65665;SDS011;52365;47.464;18.976;2022-07-29T03:41:11;3.50;;;3.17;;
65665;SDS011;52365;47.464;18.976;2022-07-29T03:41:49;5.12;;;3.22;;
65665;SDS011;52365;47.464;18.976;2022-07-29T03:42:31;4.87;;;3.58;;
65665;SDS011;52365;47.464;18.976;2022-07-29T03:43:09;4.65;;;3.30;;
65665;SDS011;52365;47.464;18.976;2022-07-29T03:43:46;4.60;;;3.45;;
65665;SDS011;52365;47.464;18.976;2022-07-29T03:44:25;4.82;;;3.30;;
65665;SDS011;52365;47.464;18.976;2022-07-29T03:45:03;5.15;;;3.50;;
65665;SDS011;52365;47.464;18.976;2022-07-29T03:45:44;5.65;;;3.53;;
65665;SDS011;52365;47.464;18.976;2022-07-29T03:46:23;4.07;;;3.37;;
65665;SDS011;52365;47.464;18.976;2022-07-29T03:47:02;6.32;;;3.62;;
65665;SDS011;52365;47.464;18.976;2022-07-29T03:47:43;5.82;;;3.72;;
65665;SDS011;52365;47.464;18.976;2022-07-29T03:48:23;6.95;;;3.50;;
65665;SDS011;52365;47.464;18.976;2022-07-29T03:49:01;5.78;;;3.30;;
65665;SDS011;52365;47.464;18.976;2022-07-29T03:49:40;5.62;;;3.50;;
65665;SDS011;52365;47.464;18.976;2022-07-29T03:50:17;6.60;;;3.30;;
65665;SDS011;52365;47.464;18.976;2022-07-29T03:50:55;5.28;;;3.47;;
65665;SDS011;52365;47.464;18.976;2022-07-29T03:51:32;3.83;;;3.15;;
65665;SDS011;52365;47.464;18.976;2022-07-29T03:52:08;4.10;;;3.35;;
65665;SDS011;52365;47.464;18.976;2022-07-29T03:52:45;4.90;;;3.53;;
65665;SDS011;52365;47.464;18.976;2022-07-29T03:53:22;4.32;;;3.35;;
65665;SDS011;52365;47.464;18.976;2022-07-29T03:53:58;4.05;;;3.33;;
65665;SDS011;52365;47.464;18.976;2022-07-29T03:54:34;6.15;;;3.55;;
65665;SDS011;52365;47.464;18.976;2022-07-29T03:55:11;5.55;;;3.20;;
65665;SDS011;52365;47.464;18.976;2022-07-29T03:55:48;5.68;;;3.50;;
65665;SDS011;52365;47.464;18.976;2022-07-29T03:56:29;5.93;;;3.30;;
65665;SDS011;52365;47.464;18.976;2022-07-29T03:57:10;4.95;;;3.20;;
65665;SDS011;52365;47.464;18.976;2022-07-29T03:57:49;5.12;;;3.33;;
65665;SDS011;52365;47.464;18.976;2022-07-29T03:58:26;4.75;;;3.47;;
65665;SDS011;52365;47.464;18.976;2022-07-29T03:59:03;4.37;;;3.40;;
65665;SDS011;52365;47.464;18.976;2022-07-29T03:59:39;5.40;;;3.47;;
65665;SDS011;52365;47.464;18.976;2022-07-29T04:00:16;7.12;;;3.50;;
65665;SDS011;52365;47.464;18.976;2022-07-29T04:00:53;4.20;;;3.20;;
65665;SDS011;52365;47.464;18.976;2022-07-29T04:01:31;4.37;;;3.22;;
65665;SDS011;52365;47.464;18.976;2022-07-29T04:02:10;4.43;;;3.20;;
65665;SDS011;52365;47.464;18.976;2022-07-29T04:02:47;4.20;;;3.20;;